createdAt,value
2022-11-22T00:03:52.697Z,233.50
2022-11-22T00:08:53.870Z,220.30
2022-11-22T00:13:57.384Z,211.30
2022-11-22T00:18:59.054Z,208.20
2022-11-22T00:24:03.083Z,233.20
2022-11-22T00:29:04.352Z,227.10
2022-11-22T00:34:10.720Z,208.90
2022-11-22T00:39:11.811Z,200.70
2022-11-22T00:44:12.956Z,167.90
2022-11-22T00:49:14.036Z,198.00
2022-11-22T00:54:15.364Z,140.30
2022-11-22T00:59:16.533Z,156.00
2022-11-22T01:04:17.805Z,167.60
2022-11-22T01:09:22.037Z,169.20
2022-11-22T01:14:41.988Z,194.60
2022-11-22T01:19:43.193Z,178.90
2022-11-22T01:24:44.343Z,167.70
2022-11-22T01:29:45.487Z,180.40
2022-11-22T01:34:46.675Z,181.10
2022-11-22T01:39:47.941Z,174.50
2022-11-22T01:44:50.044Z,185.60
2022-11-22T01:50:06.958Z,182.50
2022-11-22T01:55:12.250Z,166.10
2022-11-22T02:00:16.236Z,151.40
2022-11-22T02:05:23.641Z,159.50
2022-11-22T02:10:28.590Z,140.50
2022-11-22T02:15:29.956Z,165.10
2022-11-22T02:20:31.358Z,176.00
2022-11-22T02:25:41.494Z,180.30
2022-11-22T02:30:42.631Z,178.20
2022-11-22T02:35:43.955Z,159.90
2022-11-22T02:40:53.000Z,172.20
2022-11-22T02:45:54.529Z,175.60
2022-11-22T02:50:55.625Z,169.60
2022-11-22T02:55:57.566Z,126.90
2022-11-22T03:00:58.681Z,135.20
2022-11-22T03:06:01.793Z,126.50
2022-11-22T03:11:03.044Z,139.70
2022-11-22T03:16:04.768Z,142.50
2022-11-22T03:21:08.113Z,115.90
2022-11-22T03:26:11.099Z,98.20
2022-11-22T03:31:12.246Z,97.20
2022-11-22T03:36:13.822Z,114.10
2022-11-22T03:41:14.988Z,126.90
2022-11-22T03:46:18.851Z,100.70
2022-11-22T03:51:19.961Z,102.90
2022-11-22T03:56:22.285Z,111.30
2022-11-22T04:01:23.493Z,98.80
2022-11-22T04:06:24.841Z,125.00
2022-11-22T04:11:25.943Z,123.80
2022-11-22T04:16:27.101Z,124.60
2022-11-22T04:21:34.514Z,128.90
2022-11-22T04:26:35.999Z,132.30
2022-11-22T04:31:56.509Z,123.50
2022-11-22T04:36:58.607Z,106.90
2022-11-22T04:42:18.716Z,127.20
2022-11-22T04:47:38.473Z,112.80
2022-11-22T04:52:54.987Z,143.60
2022-11-22T04:57:59.728Z,120.20
2022-11-22T05:03:02.544Z,163.70
2022-11-22T05:08:05.229Z,121.80
2022-11-22T05:13:06.385Z,113.60
2022-11-22T05:18:07.474Z,121.00
2022-11-22T05:23:27.421Z,139.40
2022-11-22T05:28:30.546Z,124.70
2022-11-22T05:33:31.660Z,135.20
2022-11-22T05:38:37.206Z,128.20
2022-11-22T05:43:38.694Z,113.40
2022-11-22T05:48:42.425Z,123.10
2022-11-22T05:53:44.548Z,119.80
2022-11-22T05:58:46.232Z,127.20
2022-11-22T06:03:48.307Z,112.90
2022-11-22T06:08:50.690Z,107.40
2022-11-22T06:13:55.198Z,119.40
2022-11-22T06:18:56.539Z,116.60
2022-11-22T06:23:57.632Z,124.70
2022-11-22T06:28:58.765Z,128.70
2022-11-22T06:34:00.236Z,120.50
2022-11-22T06:39:02.927Z,137.60
2022-11-22T06:44:07.180Z,130.50
2022-11-22T06:49:08.270Z,138.50
2022-11-22T06:54:11.050Z,135.70
2022-11-22T06:59:12.378Z,138.70
2022-11-22T07:04:13.500Z,148.40
2022-11-22T07:09:15.823Z,145.90
2022-11-22T07:14:17.020Z,155.30
2022-11-22T07:19:18.063Z,142.50
2022-11-22T07:24:19.135Z,159.80
2022-11-22T07:29:20.194Z,168.50
2022-11-22T07:34:21.344Z,156.20
2022-11-22T07:39:22.539Z,144.40
2022-11-22T07:44:23.601Z,135.90
2022-11-22T07:49:24.747Z,136.50
2022-11-22T07:54:25.924Z,129.80
2022-11-22T07:59:27.189Z,120.80
2022-11-22T08:04:28.672Z,119.90
2022-11-22T08:09:29.929Z,116.60
2022-11-22T08:14:31.228Z,105.00
2022-11-22T08:19:35.181Z,111.20
2022-11-22T08:24:36.254Z,115.50
2022-11-22T08:29:37.375Z,109.40
2022-11-22T08:34:42.767Z,110.60
2022-11-22T08:39:56.946Z,94.90
2022-11-22T08:44:58.002Z,104.00
2022-11-22T08:49:59.123Z,96.20
2022-11-22T08:55:00.680Z,96.40
2022-11-22T09:00:02.040Z,96.60
2022-11-22T09:05:03.747Z,126.40
2022-11-22T09:10:07.557Z,112.10
2022-11-22T09:15:09.519Z,92.60
2022-11-22T09:20:11.402Z,84.20
2022-11-22T09:25:12.513Z,89.30
2022-11-22T09:30:14.035Z,84.40
2022-11-22T09:35:16.666Z,82.70
2022-11-22T09:40:17.922Z,80.70
2022-11-22T09:45:44.135Z,74.90
2022-11-22T09:51:08.231Z,64.60
2022-11-22T09:56:16.075Z,54.90
2022-11-22T10:01:30.824Z,50.00
2022-11-22T10:06:41.582Z,46.90
2022-11-22T10:11:48.767Z,42.10
2022-11-22T10:17:00.600Z,36.10
2022-11-22T10:22:01.698Z,36.50
2022-11-22T10:27:04.357Z,37.30
2022-11-22T10:32:16.587Z,36.80
2022-11-22T10:37:17.569Z,32.40
2022-11-22T10:42:43.948Z,31.80
2022-11-22T10:47:56.224Z,33.10
2022-11-22T10:53:17.666Z,28.50
2022-11-22T10:58:34.405Z,28.20
2022-11-22T11:03:41.048Z,33.10
2022-11-22T11:09:28.586Z,49.50
2022-11-22T11:14:20.380Z,44.00
2022-11-22T11:19:27.402Z,32.50
2022-11-22T11:24:30.229Z,34.40
2022-11-22T11:29:38.444Z,33.80
2022-11-22T11:34:46.514Z,31.30
2022-11-22T11:39:47.915Z,30.70
2022-11-22T11:44:48.980Z,31.70
2022-11-22T11:49:51.035Z,33.10
2022-11-22T11:54:55.428Z,37.30
2022-11-22T11:59:59.866Z,38.60
2022-11-22T12:05:26.297Z,37.40
2022-11-22T12:10:33.180Z,38.80
2022-11-22T12:15:52.750Z,37.70
2022-11-22T12:21:13.245Z,54.30
2022-11-22T12:26:14.930Z,53.20
2022-11-22T12:31:25.217Z,50.40
2022-11-22T12:36:42.685Z,45.60
2022-11-22T12:41:47.833Z,52.30
2022-11-22T12:46:55.864Z,41.80
2022-11-22T12:52:26.106Z,40.10
2022-11-22T12:57:49.542Z,34.40
2022-11-22T13:03:14.913Z,37.50
2022-11-22T13:08:42.623Z,38.10
2022-11-22T13:13:47.943Z,43.90
2022-11-22T13:18:59.661Z,40.40
2022-11-22T13:24:10.056Z,49.90
2022-11-22T13:29:23.488Z,59.00
2022-11-22T13:34:25.990Z,68.00
2022-11-22T13:39:27.242Z,55.60
2022-11-22T13:44:31.438Z,61.90
2022-11-22T13:49:37.456Z,56.00
2022-11-22T13:54:46.195Z,47.60
2022-11-22T13:59:52.094Z,46.80
2022-11-22T14:04:55.320Z,53.20
2022-11-22T14:09:57.735Z,58.50
2022-11-22T14:15:17.917Z,56.40
2022-11-22T14:20:18.964Z,110.50
2022-11-22T14:25:38.514Z,66.40
2022-11-22T14:30:53.449Z,57.60
2022-11-22T14:36:06.900Z,65.40
2022-11-22T14:41:27.238Z,53.70
2022-11-22T14:46:52.780Z,54.30
2022-11-22T14:51:55.605Z,54.30
2022-11-22T14:57:04.618Z,55.00
2022-11-22T15:02:43.312Z,53.30
2022-11-22T15:09:14.557Z,61.40
2022-11-22T15:13:41.644Z,67.60
2022-11-22T15:57:58.986Z,80.60
2022-11-22T16:03:02.352Z,63.10
2022-11-22T16:08:05.562Z,63.80
2022-11-22T16:13:18.792Z,62.70
2022-11-22T16:18:27.538Z,62.60
2022-11-22T16:23:36.693Z,82.60
2022-11-22T16:28:37.764Z,59.40
2022-11-22T16:33:38.868Z,59.10
2022-11-22T16:38:40.501Z,60.30
2022-11-22T16:43:41.578Z,65.10
2022-11-22T16:48:43.128Z,61.90
2022-11-22T16:53:46.521Z,82.20
2022-11-22T16:58:48.951Z,108.30
2022-11-22T17:03:54.280Z,102.80
2022-11-22T17:08:57.740Z,84.50
2022-11-22T17:13:59.865Z,77.00
2022-11-22T17:19:00.938Z,64.70
2022-11-22T17:24:14.904Z,75.40
2022-11-22T17:29:35.255Z,74.80
2022-11-22T17:34:37.610Z,74.00
2022-11-22T17:39:39.180Z,77.40
2022-11-22T17:44:40.275Z,68.40
2022-11-22T17:49:41.461Z,67.50
2022-11-22T17:54:42.587Z,67.90
2022-11-22T17:59:44.332Z,80.50
2022-11-22T18:04:45.393Z,71.40
2022-11-22T18:09:50.930Z,86.20
2022-11-22T18:14:52.238Z,91.90
2022-11-22T18:19:53.526Z,87.10
2022-11-22T18:24:54.771Z,94.40
2022-11-22T18:29:56.184Z,80.30
2022-11-22T18:34:57.594Z,82.50
2022-11-22T18:39:58.778Z,97.90
2022-11-22T18:44:59.963Z,83.00
2022-11-22T18:50:01.100Z,76.50
2022-11-22T18:55:02.194Z,69.70
2022-11-22T19:00:03.528Z,75.70
2022-11-22T19:05:05.007Z,58.50
2022-11-22T19:10:07.215Z,65.70
2022-11-22T19:15:09.603Z,66.20
2022-11-22T19:20:32.144Z,72.20
2022-11-22T19:25:34.529Z,72.90
2022-11-22T19:30:39.781Z,73.80
2022-11-22T19:35:57.624Z,92.40
2022-11-22T19:40:59.091Z,92.30
2022-11-22T19:46:01.274Z,119.80
2022-11-22T19:51:13.369Z,97.00
2022-11-22T19:56:17.259Z,88.60
2022-11-22T20:01:20.120Z,86.50
2022-11-22T20:06:21.392Z,155.70
2022-11-22T20:11:22.644Z,117.10
2022-11-22T20:16:26.249Z,113.90
2022-11-22T20:21:30.659Z,109.40
2022-11-22T20:26:33.088Z,105.10
2022-11-22T20:31:36.355Z,111.80
2022-11-22T20:36:37.510Z,115.30
2022-11-22T20:41:39.989Z,107.50
2022-11-22T20:46:41.882Z,102.20
2022-11-22T20:51:42.983Z,115.20
2022-11-22T20:56:44.144Z,115.10
2022-11-22T21:01:46.426Z,98.90
2022-11-22T21:06:47.542Z,92.50
2022-11-22T21:11:48.669Z,84.10
2022-11-22T21:16:49.764Z,68.80
2022-11-22T21:21:50.854Z,61.60
2022-11-22T21:26:51.969Z,59.20
2022-11-22T21:31:53.144Z,62.40
2022-11-22T21:36:54.272Z,66.40
2022-11-22T21:41:55.347Z,71.10
2022-11-22T21:46:56.460Z,78.70
2022-11-22T21:51:58.509Z,77.60
2022-11-22T21:57:02.736Z,70.70
2022-11-22T22:02:04.245Z,78.30
2022-11-22T22:07:05.489Z,82.60
2022-11-22T22:12:10.782Z,72.60
2022-11-22T22:17:11.915Z,69.90
2022-11-22T22:22:13.007Z,76.60
2022-11-22T22:27:14.081Z,80.30
2022-11-22T22:32:15.622Z,71.30
2022-11-22T22:37:16.833Z,69.30
2022-11-22T22:42:18.881Z,70.40
2022-11-22T22:47:20.094Z,72.80
2022-11-22T22:52:21.201Z,67.00
2022-11-22T22:57:22.365Z,77.70
2022-11-22T23:02:23.640Z,81.10
2022-11-22T23:07:24.836Z,89.20
2022-11-22T23:12:26.702Z,99.10
2022-11-22T23:17:27.953Z,94.40
2022-11-22T23:22:29.101Z,101.60
2022-11-22T23:27:30.243Z,103.90
2022-11-22T23:32:31.409Z,105.80
2022-11-22T23:37:32.538Z,110.60
2022-11-22T23:42:33.599Z,101.40
2022-11-22T23:47:34.650Z,104.00
2022-11-22T23:52:35.769Z,96.30
2022-11-22T23:57:36.999Z,99.60
